This is the latest recevied weather packets stored in our database for station/object WC4PEM-12. If no packets are shown the sender has not sent any weather packets the latest 10 day(s).
| Time | Temp. | Humidity | Pressure | Rain* | Wind** | Luminosity | Snow |
|---|---|---|---|---|---|---|---|
| 1778158670 | 24.44° C | 82% | 1016.3 hPa | 0 mm | - | - | - |
| 1778158655 | 22.22° C | 85% | 1016.1 hPa | 0 mm | - | - | - |
| 1778158473 | 24.44° C | 81% | 1016.2 hPa | 0 mm | - | - | - |
| 1778158370 | 24.44° C | 81% | 1016.2 hPa | 0 mm | - | - | - |
| 1778158070 | 23.89° C | 80% | 1016.2 hPa | 0 mm | - | - | - |
| 1778157925 | 23.89° C | 80% | 1016.2 hPa | 0 mm | - | - | - |
| 1778157770 | 23.89° C | 80% | 1016.2 hPa | 0 mm | - | - | - |
| 1778157470 | 23.89° C | 81% | 1016.3 hPa | 0 mm | - | - | - |
| 1778157170 | 23.33° C | 81% | 1016.2 hPa | 0 mm | - | - | - |
| 1778156870 | 23.33° C | 81% | 1016.2 hPa | 0 mm | - | - | - |
| 1778156570 | 22.78° C | 82% | 1016.2 hPa | 0 mm | - | - | - |
| 1778156270 | 22.78° C | 83% | 1016.1 hPa | 0 mm | - | - | - |
| 1778156145 | 22.22° C | 85% | 1016.1 hPa | 0 mm | - | - | - |
| 1778155970 | 22.22° C | 85% | 1016.1 hPa | 0 mm | - | - | - |
| 1778155670 | 22.22° C | 87% | 1016 hPa | 0 mm | - | - | - |
| 1778155370 | 22.22° C | 87% | 1016.1 hPa | 0 mm | - | - | - |
| 1778155070 | 21.67° C | 87% | 1015.9 hPa | 0 mm | - | - | - |
| 1778155018 | 21.67° C | 88% | 1015.9 hPa | 0 mm | - | - | - |
| 1778154770 | 21.67° C | 88% | 1015.9 hPa | 0 mm | - | - | - |
| 1778154470 | 21.11° C | 89% | 1016.1 hPa | 0 mm | - | - | - |
| 1778154370 | 21.11° C | 89% | 1016.1 hPa | 0 mm | - | - | - |
| 1778154170 | 21.11° C | 89% | 1016.1 hPa | 0 mm | - | - | - |
| 1778153870 | 21.11° C | 89% | 1016 hPa | 0 mm | - | - | - |
| 1778153731 | 21.11° C | 89% | 1015.9 hPa | 0 mm | - | - | - |
| 1778153679 | 21.11° C | 89% | 1015.9 hPa | 0 mm | - | - | - |
* Rain latest hour (hover to see other rain measurements)
** Current wind speed in m/s (hover to see current wind gust speed)